createdAt,value
2019-03-22T00:01:56.262Z,1.80
2019-03-22T00:04:24.698Z,1.90
2019-03-22T00:06:53.147Z,1.80
2019-03-22T00:09:21.602Z,1.70
2019-03-22T00:11:50.145Z,1.70
2019-03-22T00:14:18.651Z,1.60
2019-03-22T00:16:47.090Z,1.60
2019-03-22T00:19:15.561Z,1.60
2019-03-22T00:21:44.004Z,1.60
2019-03-22T00:24:12.452Z,1.60
2019-03-22T00:26:40.928Z,1.60
2019-03-22T00:29:09.391Z,1.70
2019-03-22T00:31:37.907Z,1.60
2019-03-22T00:34:06.410Z,1.60
2019-03-22T00:36:34.932Z,1.60
2019-03-22T00:39:03.946Z,1.50
2019-03-22T00:41:32.434Z,1.50
2019-03-22T00:44:00.887Z,1.50
2019-03-22T00:46:29.337Z,1.60
2019-03-22T00:48:57.789Z,1.70
2019-03-22T00:51:26.281Z,1.70
2019-03-22T00:53:54.733Z,1.60
2019-03-22T00:56:23.199Z,1.60
2019-03-22T00:58:51.743Z,1.50
2019-03-22T01:01:20.192Z,1.50
2019-03-22T01:03:48.645Z,1.40
2019-03-22T01:06:17.093Z,1.40
2019-03-22T01:08:45.560Z,1.40
2019-03-22T01:11:14.069Z,1.40
2019-03-22T01:13:42.626Z,1.50
2019-03-22T01:16:11.107Z,1.60
2019-03-22T01:18:39.658Z,1.60
2019-03-22T01:21:08.128Z,1.70
2019-03-22T01:23:36.629Z,1.70
2019-03-22T01:26:05.098Z,1.80
2019-03-22T01:28:33.806Z,1.80
2019-03-22T01:31:02.317Z,1.80
2019-03-22T01:33:30.818Z,1.70
2019-03-22T01:35:59.337Z,1.70
2019-03-22T01:38:27.827Z,1.70
2019-03-22T01:40:56.307Z,1.70
2019-03-22T01:43:24.805Z,1.70
2019-03-22T01:45:53.275Z,1.80
2019-03-22T01:48:21.742Z,1.80
2019-03-22T01:50:50.196Z,1.80
2019-03-22T01:53:18.641Z,1.80
2019-03-22T01:55:47.119Z,1.80
2019-03-22T01:58:15.557Z,1.80
2019-03-22T02:00:46.986Z,1.80
2019-03-22T02:03:15.450Z,1.80
2019-03-22T02:05:43.970Z,1.80
2019-03-22T02:08:12.418Z,1.80
2019-03-22T02:10:40.960Z,1.80
2019-03-22T02:13:09.405Z,1.70
2019-03-22T02:15:37.863Z,1.70
2019-03-22T02:18:06.405Z,1.60
2019-03-22T02:20:34.838Z,1.50
2019-03-22T02:23:03.299Z,1.50
2019-03-22T02:25:31.739Z,1.60
2019-03-22T02:28:04.384Z,1.60
2019-03-22T02:30:30.387Z,1.60
2019-03-22T02:32:58.842Z,1.50
2019-03-22T02:35:29.426Z,1.50
2019-03-22T02:37:57.476Z,1.50
2019-03-22T02:40:25.952Z,1.50
2019-03-22T02:42:54.473Z,1.60
2019-03-22T02:45:22.908Z,1.60
2019-03-22T02:47:51.370Z,1.60
2019-03-22T02:50:20.589Z,1.60
2019-03-22T02:52:49.200Z,1.60
2019-03-22T02:55:17.706Z,1.70
2019-03-22T02:57:46.528Z,1.80
2019-03-22T03:00:16.313Z,1.90
2019-03-22T03:02:44.879Z,1.90
2019-03-22T03:05:14.644Z,1.90
2019-03-22T03:07:43.194Z,1.80
2019-03-22T03:10:13.583Z,1.80
2019-03-22T03:12:42.289Z,1.70
2019-03-22T03:15:13.750Z,1.80
2019-03-22T03:17:42.254Z,1.80
2019-03-22T03:20:13.805Z,1.80
2019-03-22T03:22:42.254Z,1.90
2019-03-22T03:25:11.959Z,1.80
2019-03-22T03:27:40.408Z,1.80
2019-03-22T03:30:14.964Z,1.90
2019-03-22T03:32:43.496Z,1.80
2019-03-22T03:35:12.228Z,1.90
2019-03-22T03:37:40.759Z,1.90
2019-03-22T03:40:11.392Z,1.90
2019-03-22T03:42:39.896Z,2.00
2019-03-22T03:45:17.167Z,2.00
2019-03-22T03:47:45.664Z,2.00
2019-03-22T03:50:14.171Z,2.00
2019-03-22T03:52:42.630Z,2.00
2019-03-22T03:55:11.112Z,2.00
2019-03-22T03:57:39.552Z,1.90
2019-03-22T04:00:08.459Z,1.80
2019-03-22T04:02:37.015Z,1.80
2019-03-22T04:05:06.400Z,1.80
2019-03-22T04:07:34.864Z,1.80
2019-03-22T04:10:05.068Z,1.80
2019-03-22T04:12:33.535Z,1.80
2019-03-22T04:15:02.069Z,1.90
2019-03-22T04:17:30.642Z,1.90
2019-03-22T04:19:59.091Z,1.90
2019-03-22T04:22:27.616Z,1.90
2019-03-22T04:24:56.139Z,1.80
2019-03-22T04:27:24.604Z,1.80
2019-03-22T04:29:53.159Z,1.80
2019-03-22T04:32:21.661Z,1.80
2019-03-22T04:34:50.142Z,1.70
2019-03-22T04:37:18.655Z,1.80
2019-03-22T04:39:47.112Z,1.80
2019-03-22T04:42:15.555Z,1.70
2019-03-22T04:44:44.003Z,1.70
2019-03-22T04:47:15.053Z,1.70
2019-03-22T04:49:44.053Z,1.60
2019-03-22T04:52:13.274Z,1.60
2019-03-22T04:54:43.765Z,1.60
2019-03-22T04:57:13.282Z,1.60
2019-03-22T04:59:43.401Z,1.60
2019-03-22T05:02:12.111Z,1.60
2019-03-22T05:04:43.023Z,1.70
2019-03-22T05:07:11.801Z,1.60
2019-03-22T05:09:40.319Z,1.60
2019-03-22T05:12:10.816Z,1.70
2019-03-22T05:14:41.343Z,1.60
2019-03-22T05:17:10.257Z,1.70
2019-03-22T05:19:41.853Z,1.70
2019-03-22T05:22:13.579Z,1.60
2019-03-22T05:24:43.986Z,1.60
2019-03-22T05:27:13.245Z,1.50
2019-03-22T05:29:43.143Z,1.50
2019-03-22T05:32:13.174Z,1.50
2019-03-22T05:34:41.795Z,1.50
2019-03-22T05:37:10.326Z,1.50
2019-03-22T05:39:38.865Z,1.50
2019-03-22T05:42:07.381Z,1.50
2019-03-22T05:44:35.856Z,1.50
2019-03-22T05:47:04.398Z,1.60
2019-03-22T05:49:32.935Z,1.60
2019-03-22T05:52:01.398Z,1.70
2019-03-22T05:54:29.873Z,1.80
2019-03-22T05:56:58.335Z,1.90
2019-03-22T05:59:26.845Z,1.90
2019-03-22T06:01:55.402Z,1.90
2019-03-22T06:04:23.855Z,1.90
2019-03-22T06:06:52.313Z,1.90
2019-03-22T06:09:20.778Z,2.00
2019-03-22T06:11:49.363Z,2.00
2019-03-22T06:14:17.896Z,2.00
2019-03-22T06:16:46.445Z,2.00
2019-03-22T06:19:14.893Z,2.00
2019-03-22T06:21:43.409Z,2.00
2019-03-22T06:24:11.838Z,2.20
2019-03-22T06:26:40.367Z,2.20
2019-03-22T06:29:08.838Z,2.30
2019-03-22T06:31:37.324Z,2.40
2019-03-22T06:34:05.895Z,2.40
2019-03-22T06:36:34.389Z,2.60
2019-03-22T06:39:03.096Z,2.70
2019-03-22T06:41:31.578Z,2.70
2019-03-22T06:44:00.004Z,2.80
2019-03-22T06:46:28.506Z,2.90
2019-03-22T06:48:56.945Z,3.10
2019-03-22T06:51:25.681Z,3.30
2019-03-22T06:53:54.164Z,3.40
2019-03-22T06:56:22.724Z,3.60
2019-03-22T06:58:51.240Z,3.70
2019-03-22T07:01:19.755Z,3.70
2019-03-22T07:03:48.295Z,3.80
2019-03-22T07:06:16.874Z,4.00
2019-03-22T07:08:45.375Z,4.10
2019-03-22T07:11:13.851Z,4.30
2019-03-22T07:13:42.330Z,4.40
2019-03-22T07:16:10.798Z,4.50
2019-03-22T07:18:39.262Z,4.60
2019-03-22T07:21:07.694Z,4.70
2019-03-22T07:23:36.179Z,4.80
2019-03-22T07:26:04.621Z,4.90
2019-03-22T07:28:33.059Z,5.10
2019-03-22T07:31:01.519Z,5.30
2019-03-22T07:33:29.981Z,5.50
2019-03-22T07:35:58.435Z,5.70
2019-03-22T07:38:26.986Z,5.90
2019-03-22T07:40:55.571Z,6.10
2019-03-22T07:43:24.015Z,6.20
2019-03-22T07:45:52.531Z,6.40
2019-03-22T07:48:21.001Z,6.60
2019-03-22T07:50:49.450Z,6.70
2019-03-22T07:53:17.876Z,6.90
2019-03-22T07:55:46.426Z,7.10
2019-03-22T07:58:14.926Z,7.30
2019-03-22T08:00:43.374Z,7.40
2019-03-22T08:03:11.888Z,7.50
2019-03-22T08:05:50.697Z,7.60
2019-03-22T08:08:10.575Z,7.70
2019-03-22T08:10:39.315Z,7.80
2019-03-22T08:13:07.818Z,8.00
2019-03-22T08:15:36.343Z,8.20
2019-03-22T08:18:04.954Z,8.40
2019-03-22T08:20:33.494Z,8.60
2019-03-22T08:23:01.944Z,8.70
2019-03-22T08:25:32.432Z,8.80
2019-03-22T08:28:00.584Z,9.00
2019-03-22T08:30:29.093Z,9.30
2019-03-22T08:32:57.629Z,9.50
2019-03-22T08:35:26.147Z,9.60
2019-03-22T08:37:54.618Z,9.80
2019-03-22T08:40:23.246Z,9.90
2019-03-22T08:42:51.812Z,10.10
2019-03-22T08:45:20.313Z,10.30
2019-03-22T08:47:48.862Z,10.70
2019-03-22T08:50:17.350Z,10.90
2019-03-22T08:52:45.813Z,11.10
2019-03-22T08:55:14.305Z,11.30
2019-03-22T08:57:42.873Z,11.50
2019-03-22T09:00:13.750Z,11.70
2019-03-22T09:02:42.238Z,11.90
2019-03-22T09:05:10.937Z,12.00
2019-03-22T09:07:39.454Z,12.00
2019-03-22T09:10:12.703Z,12.00
2019-03-22T09:12:41.154Z,12.10
2019-03-22T09:15:10.860Z,12.20
2019-03-22T09:17:39.467Z,12.20
2019-03-22T09:20:09.917Z,12.30
2019-03-22T09:26:06.211Z,12.30
2019-03-22T09:28:35.006Z,12.40
2019-03-22T09:31:10.111Z,12.40
2019-03-22T09:37:01.338Z,12.50
2019-03-22T09:39:29.836Z,12.70
2019-03-22T09:41:58.383Z,12.70
2019-03-22T09:44:28.217Z,12.90
2019-03-22T09:46:56.970Z,13.00
2019-03-22T09:49:25.476Z,13.00
2019-03-22T09:51:55.245Z,13.20
2019-03-22T09:54:23.964Z,13.30
2019-03-22T09:56:52.496Z,13.30
2019-03-22T09:59:20.939Z,13.50
2019-03-22T10:01:49.413Z,13.60
2019-03-22T10:04:17.863Z,13.60
2019-03-22T10:06:46.377Z,13.60
2019-03-22T10:09:14.876Z,13.90
2019-03-22T10:11:43.418Z,13.90
2019-03-22T10:14:11.933Z,14.10
2019-03-22T10:16:40.478Z,14.30
2019-03-22T10:19:08.935Z,14.50
2019-03-22T10:21:37.450Z,14.60
2019-03-22T10:24:06.017Z,14.80
2019-03-22T10:26:34.530Z,14.80
2019-03-22T10:29:03.078Z,15.00
2019-03-22T10:31:37.057Z,15.20
2019-03-22T10:34:01.956Z,15.40
2019-03-22T10:36:30.485Z,15.30
2019-03-22T10:38:58.964Z,15.50
2019-03-22T10:41:27.468Z,15.40
2019-03-22T10:43:55.950Z,15.50
2019-03-22T10:46:24.486Z,15.50
2019-03-22T10:48:52.928Z,15.30
2019-03-22T10:51:21.790Z,15.20
2019-03-22T10:53:51.477Z,15.40
2019-03-22T10:56:19.931Z,15.50
2019-03-22T10:58:48.389Z,15.40
2019-03-22T11:01:16.870Z,15.30
2019-03-22T11:03:45.701Z,15.50
2019-03-22T11:06:14.325Z,15.80
2019-03-22T11:08:42.783Z,16.00
2019-03-22T11:11:11.214Z,15.80
2019-03-22T11:13:39.944Z,15.80
2019-03-22T11:16:08.378Z,15.90
2019-03-22T11:18:37.704Z,15.90
2019-03-22T11:21:06.300Z,16.10
2019-03-22T11:23:34.775Z,16.00
2019-03-22T11:26:04.346Z,15.90
2019-03-22T11:28:32.991Z,16.10
2019-03-22T11:31:05.070Z,15.80
2019-03-22T11:33:31.630Z,15.80
2019-03-22T11:36:00.099Z,16.00
2019-03-22T11:38:28.581Z,16.10
2019-03-22T11:40:57.038Z,16.20
2019-03-22T11:43:25.674Z,16.10
2019-03-22T11:45:54.243Z,16.00
2019-03-22T11:48:22.687Z,15.90
2019-03-22T11:50:51.165Z,15.70
2019-03-22T11:53:19.644Z,15.70
2019-03-22T11:55:48.124Z,15.70
2019-03-22T11:58:16.647Z,15.80
2019-03-22T12:00:45.107Z,15.90
2019-03-22T12:03:13.548Z,15.90
2019-03-22T12:05:42.083Z,15.90
2019-03-22T12:08:10.535Z,15.80
2019-03-22T12:10:39.089Z,15.80
2019-03-22T12:13:07.607Z,15.60
2019-03-22T12:15:36.058Z,15.60
2019-03-22T12:18:04.637Z,15.70
2019-03-22T12:20:33.082Z,15.80
2019-03-22T12:23:01.554Z,16.00
2019-03-22T12:25:30.908Z,16.10
2019-03-22T12:27:59.365Z,16.20
2019-03-22T12:30:27.833Z,16.30
2019-03-22T12:32:56.309Z,16.50
2019-03-22T12:35:24.811Z,16.70
2019-03-22T12:37:53.270Z,16.90
2019-03-22T12:40:22.579Z,16.90
2019-03-22T12:42:51.125Z,17.00
2019-03-22T12:45:30.179Z,17.00
2019-03-22T12:47:58.787Z,17.20
2019-03-22T12:50:27.339Z,17.60
2019-03-22T12:52:55.876Z,17.80
2019-03-22T12:55:24.391Z,17.70
2019-03-22T12:57:52.904Z,17.70
2019-03-22T13:00:27.620Z,17.80
2019-03-22T13:02:56.230Z,18.00
2019-03-22T13:05:24.752Z,18.40
2019-03-22T13:07:53.305Z,18.40
2019-03-22T13:10:25.887Z,18.60
2019-03-22T13:12:54.374Z,18.70
2019-03-22T13:15:23.007Z,18.80
2019-03-22T13:17:51.535Z,18.90
2019-03-22T13:20:20.049Z,18.60
2019-03-22T13:22:48.514Z,18.50
2019-03-22T13:25:21.023Z,18.60
2019-03-22T13:27:49.133Z,18.80
2019-03-22T13:30:23.273Z,18.70
2019-03-22T13:32:52.261Z,18.80
2019-03-22T13:35:21.449Z,18.80
2019-03-22T13:37:49.947Z,19.00
2019-03-22T13:40:18.394Z,19.40
2019-03-22T13:42:46.863Z,19.70
2019-03-22T13:45:15.353Z,19.90
2019-03-22T13:47:43.819Z,19.80
2019-03-22T13:50:12.408Z,20.00
2019-03-22T13:52:40.885Z,20.20
2019-03-22T13:55:09.536Z,20.20
2019-03-22T13:57:37.978Z,20.30
2019-03-22T14:00:17.730Z,20.30
2019-03-22T14:02:46.236Z,20.40
2019-03-22T14:05:14.780Z,20.60
2019-03-22T14:07:43.228Z,20.70
2019-03-22T14:10:31.321Z,20.90
2019-03-22T14:13:01.895Z,20.90
2019-03-22T14:15:30.529Z,20.90
2019-03-22T14:17:59.137Z,21.00
2019-03-22T14:20:27.603Z,21.20
2019-03-22T14:22:56.097Z,21.30
2019-03-22T14:25:24.572Z,21.30
2019-03-22T14:27:53.673Z,21.40
2019-03-22T14:30:22.287Z,21.60
2019-03-22T14:32:51.675Z,21.60
2019-03-22T14:35:20.322Z,21.60
2019-03-22T14:37:48.823Z,21.40
2019-03-22T14:40:17.279Z,21.30
2019-03-22T14:42:46.698Z,21.20
2019-03-22T14:45:15.298Z,21.20
2019-03-22T14:47:44.674Z,21.50
2019-03-22T14:50:13.160Z,21.40
2019-03-22T14:52:41.633Z,21.60
2019-03-22T14:55:10.158Z,21.70
2019-03-22T14:57:48.414Z,21.60
2019-03-22T15:00:11.299Z,21.50
2019-03-22T15:02:39.775Z,21.40
2019-03-22T15:05:08.438Z,21.20
2019-03-22T15:07:36.894Z,20.60
2019-03-22T15:10:08.193Z,20.60
2019-03-22T15:12:36.657Z,20.80
2019-03-22T15:15:11.489Z,21.10
2019-03-22T15:17:41.633Z,21.30
2019-03-22T15:20:14.592Z,21.30
2019-03-22T15:22:59.567Z,21.40
2019-03-22T15:25:44.661Z,21.70
2019-03-22T15:28:29.564Z,21.90
2019-03-22T15:31:16.535Z,21.80
2019-03-22T15:33:46.676Z,21.30
2019-03-22T15:36:19.794Z,21.50
2019-03-22T15:39:06.351Z,21.80
2019-03-22T15:41:35.117Z,22.10
2019-03-22T15:44:03.633Z,22.30
2019-03-22T15:46:32.207Z,22.10
2019-03-22T15:49:00.879Z,22.30
2019-03-22T15:51:29.519Z,22.00
2019-03-22T15:53:57.973Z,21.50
2019-03-22T15:56:27.341Z,21.10
2019-03-22T15:58:55.783Z,20.40
2019-03-22T16:01:24.338Z,19.90
2019-03-22T16:03:52.839Z,20.10
2019-03-22T16:06:21.369Z,19.80
2019-03-22T16:08:50.123Z,19.40
2019-03-22T16:11:18.663Z,19.10
2019-03-22T16:13:47.113Z,18.70
2019-03-22T16:16:15.679Z,18.10
2019-03-22T16:18:44.121Z,17.80
2019-03-22T16:21:12.613Z,17.50
2019-03-22T16:23:41.074Z,17.10
2019-03-22T16:26:09.543Z,16.70
2019-03-22T16:28:38.047Z,16.50
2019-03-22T16:31:06.502Z,16.30
2019-03-22T16:33:34.980Z,16.10
2019-03-22T16:36:03.991Z,16.00
2019-03-22T16:38:32.478Z,16.00
2019-03-22T16:41:01.307Z,16.00
2019-03-22T16:43:29.853Z,16.00
2019-03-22T16:45:58.307Z,15.70
2019-03-22T16:48:26.825Z,15.70
2019-03-22T16:50:55.343Z,15.50
2019-03-22T16:53:23.837Z,15.50
2019-03-22T16:55:52.451Z,15.30
2019-03-22T16:58:21.021Z,15.10
2019-03-22T17:00:50.045Z,15.00
2019-03-22T17:03:18.605Z,14.70
2019-03-22T17:05:47.070Z,14.50
2019-03-22T17:08:15.623Z,14.20
2019-03-22T17:10:44.180Z,14.00
2019-03-22T17:13:12.642Z,13.80
2019-03-22T17:15:41.103Z,13.50
2019-03-22T17:18:09.546Z,13.30
2019-03-22T17:20:38.103Z,13.10
2019-03-22T17:23:06.768Z,13.00
2019-03-22T17:25:35.215Z,12.80
2019-03-22T17:28:03.966Z,12.60
2019-03-22T17:30:32.423Z,12.40
2019-03-22T17:33:00.954Z,12.20
2019-03-22T17:35:29.393Z,12.00
2019-03-22T17:37:58.045Z,11.70
2019-03-22T17:40:26.563Z,11.50
2019-03-22T17:42:55.091Z,11.20
2019-03-22T17:45:23.665Z,11.00
2019-03-22T17:47:52.158Z,10.70
2019-03-22T17:50:20.743Z,10.50
2019-03-22T17:52:49.205Z,10.20
2019-03-22T17:55:17.641Z,10.00
2019-03-22T17:57:46.096Z,9.80
2019-03-22T18:00:18.192Z,9.70
2019-03-22T18:02:46.741Z,9.60
2019-03-22T18:05:15.322Z,9.50
2019-03-22T18:07:43.759Z,9.30
2019-03-22T18:10:13.057Z,9.30
2019-03-22T18:12:41.997Z,9.10
2019-03-22T18:15:12.134Z,9.10
2019-03-22T18:17:40.570Z,8.90
2019-03-22T18:20:13.270Z,8.90
2019-03-22T18:22:41.782Z,8.80
2019-03-22T18:25:11.742Z,8.80
2019-03-22T18:27:40.179Z,8.60
2019-03-22T18:30:10.934Z,8.50
2019-03-22T18:32:39.359Z,8.40
2019-03-22T18:35:08.253Z,8.30
2019-03-22T18:37:36.704Z,8.10
2019-03-22T18:40:10.212Z,8.00
2019-03-22T18:42:38.645Z,7.80
2019-03-22T18:45:09.851Z,7.70
2019-03-22T18:47:38.324Z,7.60
2019-03-22T18:50:08.759Z,7.50
2019-03-22T18:52:37.192Z,7.40
2019-03-22T18:55:07.508Z,7.30
2019-03-22T18:57:36.482Z,7.20
2019-03-22T19:00:07.802Z,7.10
2019-03-22T19:02:36.301Z,7.10
2019-03-22T19:05:07.178Z,7.00
2019-03-22T19:07:35.686Z,7.00
2019-03-22T19:10:06.853Z,6.90
2019-03-22T19:12:35.375Z,6.80
2019-03-22T19:15:06.794Z,6.70
2019-03-22T19:17:35.281Z,6.60
2019-03-22T19:20:05.956Z,6.60
2019-03-22T19:22:34.422Z,6.50
2019-03-22T19:25:02.882Z,6.40
2019-03-22T19:27:31.393Z,6.30
2019-03-22T19:29:59.931Z,6.30
2019-03-22T19:32:28.383Z,6.20
2019-03-22T19:34:56.898Z,6.20
2019-03-22T19:37:25.355Z,6.10
2019-03-22T19:39:53.940Z,6.20
2019-03-22T19:42:22.389Z,6.10
2019-03-22T19:44:50.925Z,6.10
2019-03-22T19:47:19.426Z,6.00
2019-03-22T19:49:47.891Z,5.90
2019-03-22T19:52:16.414Z,5.90
2019-03-22T19:54:44.887Z,5.80
2019-03-22T19:57:13.421Z,5.60
2019-03-22T19:59:41.865Z,5.60
2019-03-22T20:02:10.713Z,5.50
2019-03-22T20:04:39.303Z,5.50
2019-03-22T20:07:07.784Z,5.40
2019-03-22T20:09:36.289Z,5.40
2019-03-22T20:12:04.932Z,5.40
2019-03-22T20:14:33.441Z,5.30
2019-03-22T20:17:01.878Z,5.40
2019-03-22T20:19:30.346Z,5.40
2019-03-22T20:21:58.777Z,5.40
2019-03-22T20:24:27.280Z,5.30
2019-03-22T20:26:55.744Z,5.20
2019-03-22T20:29:24.259Z,5.10
2019-03-22T20:31:52.843Z,5.10
2019-03-22T20:34:21.422Z,5.00
2019-03-22T20:36:49.953Z,4.90
2019-03-22T20:39:18.431Z,4.90
2019-03-22T20:41:47.124Z,4.80
2019-03-22T20:44:15.641Z,4.80
2019-03-22T20:46:44.110Z,4.80
2019-03-22T20:49:12.569Z,4.80
2019-03-22T20:51:41.005Z,4.80
2019-03-22T20:54:09.530Z,4.90
2019-03-22T20:56:37.963Z,5.00
2019-03-22T20:59:06.493Z,5.00
2019-03-22T21:01:34.948Z,5.10
2019-03-22T21:04:03.444Z,5.20
2019-03-22T21:06:31.895Z,5.30
2019-03-22T21:09:00.421Z,5.30
2019-03-22T21:11:28.988Z,5.60
2019-03-22T21:13:57.426Z,6.40
2019-03-22T21:16:25.862Z,6.60
2019-03-22T21:18:54.307Z,6.60
2019-03-22T21:21:25.518Z,6.40
2019-03-22T21:23:52.974Z,6.40
2019-03-22T21:26:21.420Z,6.30
2019-03-22T21:28:49.859Z,6.30
2019-03-22T21:31:18.339Z,6.30
2019-03-22T21:33:46.803Z,6.10
2019-03-22T21:36:15.242Z,6.10
2019-03-22T21:38:43.687Z,6.00
2019-03-22T21:41:12.147Z,5.90
2019-03-22T21:43:40.660Z,5.90
2019-03-22T21:46:09.099Z,5.80
2019-03-22T21:48:37.571Z,5.80
2019-03-22T21:51:06.014Z,5.80
2019-03-22T21:53:34.656Z,5.80
2019-03-22T21:56:03.129Z,5.70
2019-03-22T21:58:31.637Z,5.60
2019-03-22T22:01:00.197Z,5.60
2019-03-22T22:03:28.651Z,5.50
2019-03-22T22:05:57.092Z,5.50
2019-03-22T22:08:25.548Z,5.40
2019-03-22T22:10:59.740Z,5.30
2019-03-22T22:13:24.172Z,5.30
2019-03-22T22:15:52.679Z,5.30
2019-03-22T22:18:21.135Z,5.30
2019-03-22T22:20:49.597Z,5.40
2019-03-22T22:23:18.146Z,5.20
2019-03-22T22:25:46.587Z,5.10
2019-03-22T22:28:15.062Z,5.00
2019-03-22T22:30:43.504Z,4.90
2019-03-22T22:33:11.952Z,4.90
2019-03-22T22:35:40.394Z,4.80
2019-03-22T22:38:08.867Z,4.70
2019-03-22T22:40:37.298Z,4.60
2019-03-22T22:43:05.768Z,4.50
2019-03-22T22:45:34.293Z,4.50
2019-03-22T22:48:02.763Z,4.60
2019-03-22T22:50:31.206Z,4.50
2019-03-22T22:52:59.653Z,4.40
2019-03-22T22:55:28.101Z,4.30
2019-03-22T22:57:56.546Z,4.30
2019-03-22T23:00:26.712Z,4.20
2019-03-22T23:02:55.320Z,4.10
2019-03-22T23:05:23.829Z,4.10
2019-03-22T23:07:52.375Z,4.10
2019-03-22T23:10:20.806Z,4.00
2019-03-22T23:12:49.280Z,3.90
2019-03-22T23:15:17.712Z,4.00
2019-03-22T23:17:46.242Z,4.00
2019-03-22T23:20:14.686Z,4.00
2019-03-22T23:22:43.127Z,3.90
2019-03-22T23:25:11.653Z,3.80
2019-03-22T23:27:40.171Z,3.70
2019-03-22T23:30:12.622Z,3.70
2019-03-22T23:32:41.254Z,3.70
2019-03-22T23:35:09.750Z,3.80
2019-03-22T23:37:38.238Z,3.80
2019-03-22T23:40:07.369Z,3.80
2019-03-22T23:42:35.826Z,3.80
2019-03-22T23:45:07.172Z,3.80
2019-03-22T23:47:35.619Z,3.70
2019-03-22T23:50:06.619Z,3.70
2019-03-22T23:52:35.055Z,3.50
2019-03-22T23:55:04.465Z,3.50
2019-03-22T23:57:32.891Z,3.50
